sensor_id;sensor_type;location;lat;lon;timestamp;P1;durP1;ratioP1;P2;durP2;ratioP2
15307;SDS011;7755;52.208;6.964;2023-07-09T00:03:44;7.20;;;6.50;;
15307;SDS011;7755;52.208;6.964;2023-07-09T00:07:50;8.60;;;7.80;;
15307;SDS011;7755;52.208;6.964;2023-07-09T00:11:52;7.30;;;6.60;;
15307;SDS011;7755;52.208;6.964;2023-07-09T00:15:57;8.10;;;7.40;;
15307;SDS011;7755;52.208;6.964;2023-07-09T00:20:04;8.47;;;7.10;;
15307;SDS011;7755;52.208;6.964;2023-07-09T00:24:12;7.13;;;6.43;;
15307;SDS011;7755;52.208;6.964;2023-07-09T00:28:16;7.33;;;6.70;;
15307;SDS011;7755;52.208;6.964;2023-07-09T00:32:19;8.70;;;6.63;;
15307;SDS011;7755;52.208;6.964;2023-07-09T00:36:26;8.07;;;7.33;;
15307;SDS011;7755;52.208;6.964;2023-07-09T00:40:32;7.60;;;6.93;;
15307;SDS011;7755;52.208;6.964;2023-07-09T00:44:35;7.77;;;7.07;;
15307;SDS011;7755;52.208;6.964;2023-07-09T00:48:38;8.53;;;7.10;;
15307;SDS011;7755;52.208;6.964;2023-07-09T00:52:44;7.97;;;7.27;;
15307;SDS011;7755;52.208;6.964;2023-07-09T00:56:52;7.73;;;7.03;;
15307;SDS011;7755;52.208;6.964;2023-07-09T01:01:00;7.73;;;7.03;;
15307;SDS011;7755;52.208;6.964;2023-07-09T01:05:07;8.60;;;7.80;;
15307;SDS011;7755;52.208;6.964;2023-07-09T01:09:11;8.13;;;7.33;;
15307;SDS011;7755;52.208;6.964;2023-07-09T01:13:14;7.67;;;6.97;;
15307;SDS011;7755;52.208;6.964;2023-07-09T01:17:19;8.13;;;7.50;;
15307;SDS011;7755;52.208;6.964;2023-07-09T01:21:24;8.30;;;7.50;;
15307;SDS011;7755;52.208;6.964;2023-07-09T01:25:28;8.57;;;7.87;;
15307;SDS011;7755;52.208;6.964;2023-07-09T01:29:32;8.40;;;7.60;;
15307;SDS011;7755;52.208;6.964;2023-07-09T01:33:38;8.17;;;7.47;;
15307;SDS011;7755;52.208;6.964;2023-07-09T01:37:42;8.87;;;8.07;;
15307;SDS011;7755;52.208;6.964;2023-07-09T01:41:46;7.93;;;7.23;;
15307;SDS011;7755;52.208;6.964;2023-07-09T01:45:50;8.73;;;7.83;;
15307;SDS011;7755;52.208;6.964;2023-07-09T01:49:54;8.33;;;7.57;;
15307;SDS011;7755;52.208;6.964;2023-07-09T01:54:00;8.40;;;7.60;;
15307;SDS011;7755;52.208;6.964;2023-07-09T01:58:02;8.47;;;7.80;;
15307;SDS011;7755;52.208;6.964;2023-07-09T02:02:09;8.87;;;8.13;;
15307;SDS011;7755;52.208;6.964;2023-07-09T02:06:16;8.93;;;8.13;;
15307;SDS011;7755;52.208;6.964;2023-07-09T02:10:22;8.60;;;7.77;;
15307;SDS011;7755;52.208;6.964;2023-07-09T02:14:26;8.53;;;7.83;;
15307;SDS011;7755;52.208;6.964;2023-07-09T02:18:29;8.57;;;7.83;;
15307;SDS011;7755;52.208;6.964;2023-07-09T02:22:34;8.77;;;7.97;;
15307;SDS011;7755;52.208;6.964;2023-07-09T02:26:39;9.37;;;8.57;;
15307;SDS011;7755;52.208;6.964;2023-07-09T02:30:43;9.57;;;8.40;;
15307;SDS011;7755;52.208;6.964;2023-07-09T02:34:46;9.30;;;8.40;;
15307;SDS011;7755;52.208;6.964;2023-07-09T02:38:51;9.50;;;8.67;;
15307;SDS011;7755;52.208;6.964;2023-07-09T02:42:55;10.40;;;9.40;;
15307;SDS011;7755;52.208;6.964;2023-07-09T02:46:58;9.00;;;8.20;;
15307;SDS011;7755;52.208;6.964;2023-07-09T02:51:02;9.57;;;8.60;;
15307;SDS011;7755;52.208;6.964;2023-07-09T02:55:05;9.83;;;8.90;;
15307;SDS011;7755;52.208;6.964;2023-07-09T02:59:10;8.70;;;7.90;;
15307;SDS011;7755;52.208;6.964;2023-07-09T03:03:13;9.07;;;8.37;;
15307;SDS011;7755;52.208;6.964;2023-07-09T03:07:16;9.70;;;8.90;;
15307;SDS011;7755;52.208;6.964;2023-07-09T03:11:20;9.93;;;9.03;;
15307;SDS011;7755;52.208;6.964;2023-07-09T03:15:24;9.73;;;8.80;;
15307;SDS011;7755;52.208;6.964;2023-07-09T03:19:27;9.40;;;8.60;;
15307;SDS011;7755;52.208;6.964;2023-07-09T03:23:31;9.23;;;8.43;;
15307;SDS011;7755;52.208;6.964;2023-07-09T03:27:34;10.27;;;9.33;;
15307;SDS011;7755;52.208;6.964;2023-07-09T03:31:38;9.70;;;8.90;;
15307;SDS011;7755;52.208;6.964;2023-07-09T03:35:41;10.30;;;9.40;;
15307;SDS011;7755;52.208;6.964;2023-07-09T03:39:45;10.10;;;9.20;;
15307;SDS011;7755;52.208;6.964;2023-07-09T03:43:48;10.73;;;9.73;;
15307;SDS011;7755;52.208;6.964;2023-07-09T03:47:53;11.00;;;10.00;;
15307;SDS011;7755;52.208;6.964;2023-07-09T03:51:56;9.67;;;8.87;;
15307;SDS011;7755;52.208;6.964;2023-07-09T03:55:58;10.20;;;9.20;;
15307;SDS011;7755;52.208;6.964;2023-07-09T04:00:03;10.17;;;9.30;;
15307;SDS011;7755;52.208;6.964;2023-07-09T04:04:16;10.47;;;9.57;;
15307;SDS011;7755;52.208;6.964;2023-07-09T04:08:22;10.50;;;9.37;;
15307;SDS011;7755;52.208;6.964;2023-07-09T04:12:26;10.43;;;9.53;;
15307;SDS011;7755;52.208;6.964;2023-07-09T04:16:29;11.13;;;10.03;;
15307;SDS011;7755;52.208;6.964;2023-07-09T04:20:34;10.23;;;9.23;;
15307;SDS011;7755;52.208;6.964;2023-07-09T04:24:37;9.97;;;8.93;;
15307;SDS011;7755;52.208;6.964;2023-07-09T04:28:40;10.37;;;9.47;;
15307;SDS011;7755;52.208;6.964;2023-07-09T04:32:43;10.53;;;9.30;;
15307;SDS011;7755;52.208;6.964;2023-07-09T04:36:48;10.10;;;9.20;;
15307;SDS011;7755;52.208;6.964;2023-07-09T04:40:51;9.00;;;8.17;;
15307;SDS011;7755;52.208;6.964;2023-07-09T04:44:53;10.83;;;9.73;;
15307;SDS011;7755;52.208;6.964;2023-07-09T04:48:56;9.80;;;9.00;;
15307;SDS011;7755;52.208;6.964;2023-07-09T04:53:00;11.17;;;9.97;;
15307;SDS011;7755;52.208;6.964;2023-07-09T04:57:04;10.63;;;9.73;;
15307;SDS011;7755;52.208;6.964;2023-07-09T05:01:07;10.33;;;9.33;;
15307;SDS011;7755;52.208;6.964;2023-07-09T05:05:10;9.23;;;8.43;;
15307;SDS011;7755;52.208;6.964;2023-07-09T05:09:14;10.80;;;9.73;;
15307;SDS011;7755;52.208;6.964;2023-07-09T05:13:17;10.83;;;9.83;;
15307;SDS011;7755;52.208;6.964;2023-07-09T05:17:21;11.07;;;9.97;;
15307;SDS011;7755;52.208;6.964;2023-07-09T05:21:25;10.00;;;9.13;;
15307;SDS011;7755;52.208;6.964;2023-07-09T05:25:29;10.60;;;9.50;;
15307;SDS011;7755;52.208;6.964;2023-07-09T05:29:32;11.30;;;10.20;;
15307;SDS011;7755;52.208;6.964;2023-07-09T05:33:35;11.47;;;10.37;;
15307;SDS011;7755;52.208;6.964;2023-07-09T05:37:38;11.13;;;9.90;;
15307;SDS011;7755;52.208;6.964;2023-07-09T05:41:42;10.00;;;8.93;;
15307;SDS011;7755;52.208;6.964;2023-07-09T05:45:45;10.80;;;9.70;;
15307;SDS011;7755;52.208;6.964;2023-07-09T05:49:48;9.53;;;8.63;;
15307;SDS011;7755;52.208;6.964;2023-07-09T05:53:52;9.67;;;8.77;;
15307;SDS011;7755;52.208;6.964;2023-07-09T05:57:56;10.97;;;9.63;;
15307;SDS011;7755;52.208;6.964;2023-07-09T06:01:59;10.27;;;9.27;;
15307;SDS011;7755;52.208;6.964;2023-07-09T06:06:02;10.53;;;9.50;;
15307;SDS011;7755;52.208;6.964;2023-07-09T06:10:07;10.03;;;9.03;;
15307;SDS011;7755;52.208;6.964;2023-07-09T06:14:12;10.77;;;9.67;;
15307;SDS011;7755;52.208;6.964;2023-07-09T06:18:15;9.83;;;8.83;;
15307;SDS011;7755;52.208;6.964;2023-07-09T06:22:18;9.47;;;8.57;;
15307;SDS011;7755;52.208;6.964;2023-07-09T06:26:21;9.53;;;8.57;;
15307;SDS011;7755;52.208;6.964;2023-07-09T06:30:27;9.70;;;8.70;;
15307;SDS011;7755;52.208;6.964;2023-07-09T06:34:30;8.18;;;7.38;;
15307;SDS011;7755;52.208;6.964;2023-07-09T06:38:32;8.13;;;7.32;;
15307;SDS011;7755;52.208;6.964;2023-07-09T06:42:35;7.82;;;7.10;;
15307;SDS011;7755;52.208;6.964;2023-07-09T06:46:48;8.05;;;7.30;;
15307;SDS011;7755;52.208;6.964;2023-07-09T06:50:51;8.45;;;7.65;;
15307;SDS011;7755;52.208;6.964;2023-07-09T06:54:54;7.82;;;6.63;;
15307;SDS011;7755;52.208;6.964;2023-07-09T06:58:57;8.02;;;6.93;;
15307;SDS011;7755;52.208;6.964;2023-07-09T07:03:01;7.82;;;7.13;;
15307;SDS011;7755;52.208;6.964;2023-07-09T07:07:05;8.63;;;6.93;;
15307;SDS011;7755;52.208;6.964;2023-07-09T07:11:08;7.85;;;7.13;;
15307;SDS011;7755;52.208;6.964;2023-07-09T07:15:12;7.80;;;7.10;;
15307;SDS011;7755;52.208;6.964;2023-07-09T07:19:17;10.30;;;7.78;;
15307;SDS011;7755;52.208;6.964;2023-07-09T07:23:20;8.55;;;7.68;;
15307;SDS011;7755;52.208;6.964;2023-07-09T07:27:24;8.27;;;7.47;;
15307;SDS011;7755;52.208;6.964;2023-07-09T07:31:27;9.52;;;8.68;;
15307;SDS011;7755;52.208;6.964;2023-07-09T07:35:31;8.25;;;7.35;;
15307;SDS011;7755;52.208;6.964;2023-07-09T07:39:34;8.18;;;7.47;;
15307;SDS011;7755;52.208;6.964;2023-07-09T07:43:37;9.05;;;7.82;;
15307;SDS011;7755;52.208;6.964;2023-07-09T07:47:40;9.20;;;8.32;;
15307;SDS011;7755;52.208;6.964;2023-07-09T07:51:44;9.10;;;8.13;;
15307;SDS011;7755;52.208;6.964;2023-07-09T07:55:47;8.90;;;7.55;;
15307;SDS011;7755;52.208;6.964;2023-07-09T07:59:50;9.63;;;7.95;;
15307;SDS011;7755;52.208;6.964;2023-07-09T08:03:53;8.77;;;7.38;;
15307;SDS011;7755;52.208;6.964;2023-07-09T08:07:57;8.55;;;7.75;;
15307;SDS011;7755;52.208;6.964;2023-07-09T08:12:00;8.90;;;7.78;;
15307;SDS011;7755;52.208;6.964;2023-07-09T08:16:06;8.32;;;7.53;;
15307;SDS011;7755;52.208;6.964;2023-07-09T08:20:10;8.30;;;7.50;;
15307;SDS011;7755;52.208;6.964;2023-07-09T08:24:14;8.85;;;7.95;;
15307;SDS011;7755;52.208;6.964;2023-07-09T08:28:17;8.45;;;7.63;;
15307;SDS011;7755;52.208;6.964;2023-07-09T08:32:20;9.25;;;8.38;;
15307;SDS011;7755;52.208;6.964;2023-07-09T08:36:23;7.78;;;7.13;;
15307;SDS011;7755;52.208;6.964;2023-07-09T08:40:30;8.75;;;7.85;;
15307;SDS011;7755;52.208;6.964;2023-07-09T08:49:00;8.55;;;7.85;;
15307;SDS011;7755;52.208;6.964;2023-07-09T09:02:02;9.00;;;8.18;;
15307;SDS011;7755;52.208;6.964;2023-07-09T09:06:11;8.40;;;7.65;;
15307;SDS011;7755;52.208;6.964;2023-07-09T09:10:17;8.25;;;7.38;;
15307;SDS011;7755;52.208;6.964;2023-07-09T09:14:27;8.05;;;7.15;;
15307;SDS011;7755;52.208;6.964;2023-07-09T09:18:35;7.28;;;6.60;;
15307;SDS011;7755;52.208;6.964;2023-07-09T09:22:44;8.55;;;7.63;;
15307;SDS011;7755;52.208;6.964;2023-07-09T09:26:52;7.45;;;6.75;;
15307;SDS011;7755;52.208;6.964;2023-07-09T09:31:00;8.38;;;7.43;;
15307;SDS011;7755;52.208;6.964;2023-07-09T09:35:11;9.00;;;8.10;;
15307;SDS011;7755;52.208;6.964;2023-07-09T09:39:16;7.72;;;6.88;;
15307;SDS011;7755;52.208;6.964;2023-07-09T09:43:20;8.23;;;7.20;;
15307;SDS011;7755;52.208;6.964;2023-07-09T09:47:27;7.82;;;7.13;;
15307;SDS011;7755;52.208;6.964;2023-07-09T09:51:43;7.68;;;6.97;;
15307;SDS011;7755;52.208;6.964;2023-07-09T09:55:48;8.05;;;7.25;;
15307;SDS011;7755;52.208;6.964;2023-07-09T09:59:53;8.07;;;7.38;;
15307;SDS011;7755;52.208;6.964;2023-07-09T10:04:01;7.90;;;7.15;;
15307;SDS011;7755;52.208;6.964;2023-07-09T10:08:07;8.02;;;6.90;;
15307;SDS011;7755;52.208;6.964;2023-07-09T10:12:13;7.03;;;6.35;;
15307;SDS011;7755;52.208;6.964;2023-07-09T10:16:23;7.95;;;6.38;;
15307;SDS011;7755;52.208;6.964;2023-07-09T10:20:34;6.40;;;5.80;;
15307;SDS011;7755;52.208;6.964;2023-07-09T10:24:43;7.53;;;6.63;;
15307;SDS011;7755;52.208;6.964;2023-07-09T10:28:59;7.65;;;6.80;;
15307;SDS011;7755;52.208;6.964;2023-07-09T10:33:20;7.57;;;6.70;;
15307;SDS011;7755;52.208;6.964;2023-07-09T10:42:01;6.45;;;5.80;;
15307;SDS011;7755;52.208;6.964;2023-07-09T10:46:09;5.97;;;5.38;;
15307;SDS011;7755;52.208;6.964;2023-07-09T10:50:17;7.28;;;6.10;;
15307;SDS011;7755;52.208;6.964;2023-07-09T10:54:29;6.63;;;5.65;;
15307;SDS011;7755;52.208;6.964;2023-07-09T10:58:39;6.43;;;5.82;;
15307;SDS011;7755;52.208;6.964;2023-07-09T11:02:50;6.45;;;5.85;;
15307;SDS011;7755;52.208;6.964;2023-07-09T11:07:03;5.65;;;5.15;;
15307;SDS011;7755;52.208;6.964;2023-07-09T11:11:11;6.60;;;5.72;;
15307;SDS011;7755;52.208;6.964;2023-07-09T11:15:21;6.97;;;5.57;;
15307;SDS011;7755;52.208;6.964;2023-07-09T11:19:30;7.00;;;5.80;;
15307;SDS011;7755;52.208;6.964;2023-07-09T11:23:43;6.80;;;6.07;;
15307;SDS011;7755;52.208;6.964;2023-07-09T11:27:50;7.57;;;5.85;;
15307;SDS011;7755;52.208;6.964;2023-07-09T11:32:06;6.55;;;5.95;;
15307;SDS011;7755;52.208;6.964;2023-07-09T11:36:13;5.05;;;4.55;;
15307;SDS011;7755;52.208;6.964;2023-07-09T11:40:27;7.18;;;5.72;;
15307;SDS011;7755;52.208;6.964;2023-07-09T11:44:32;5.13;;;4.50;;
15307;SDS011;7755;52.208;6.964;2023-07-09T11:48:36;6.40;;;5.10;;
15307;SDS011;7755;52.208;6.964;2023-07-09T11:52:45;5.03;;;4.55;;
15307;SDS011;7755;52.208;6.964;2023-07-09T11:56:53;5.13;;;4.57;;
15307;SDS011;7755;52.208;6.964;2023-07-09T12:00:59;5.05;;;4.55;;
15307;SDS011;7755;52.208;6.964;2023-07-09T12:05:03;5.28;;;4.82;;
15307;SDS011;7755;52.208;6.964;2023-07-09T12:09:08;6.35;;;5.35;;
15307;SDS011;7755;52.208;6.964;2023-07-09T12:13:15;6.07;;;5.20;;
15307;SDS011;7755;52.208;6.964;2023-07-09T12:17:22;6.20;;;5.45;;
15307;SDS011;7755;52.208;6.964;2023-07-09T12:21:27;5.82;;;5.28;;
15307;SDS011;7755;52.208;6.964;2023-07-09T12:25:30;5.38;;;4.80;;
15307;SDS011;7755;52.208;6.964;2023-07-09T12:29:34;4.80;;;4.32;;
15307;SDS011;7755;52.208;6.964;2023-07-09T12:33:45;14.18;;;9.15;;
15307;SDS011;7755;52.208;6.964;2023-07-09T12:37:51;5.22;;;4.72;;
15307;SDS011;7755;52.208;6.964;2023-07-09T12:41:55;6.20;;;4.70;;
15307;SDS011;7755;52.208;6.964;2023-07-09T12:46:01;4.93;;;4.43;;
15307;SDS011;7755;52.208;6.964;2023-07-09T12:50:15;5.35;;;4.35;;
15307;SDS011;7755;52.208;6.964;2023-07-09T12:54:30;6.20;;;4.68;;
15307;SDS011;7755;52.208;6.964;2023-07-09T12:58:36;5.88;;;4.72;;
15307;SDS011;7755;52.208;6.964;2023-07-09T13:02:40;6.35;;;4.68;;
15307;SDS011;7755;52.208;6.964;2023-07-09T13:06:45;5.28;;;4.78;;
15307;SDS011;7755;52.208;6.964;2023-07-09T13:10:51;5.47;;;4.97;;
15307;SDS011;7755;52.208;6.964;2023-07-09T13:14:55;6.15;;;5.57;;
15307;SDS011;7755;52.208;6.964;2023-07-09T13:19:01;6.28;;;5.43;;
15307;SDS011;7755;52.208;6.964;2023-07-09T13:23:09;6.00;;;5.45;;
15307;SDS011;7755;52.208;6.964;2023-07-09T13:27:15;5.70;;;5.20;;
15307;SDS011;7755;52.208;6.964;2023-07-09T13:31:19;5.93;;;5.32;;
15307;SDS011;7755;52.208;6.964;2023-07-09T13:35:25;6.25;;;4.97;;
15307;SDS011;7755;52.208;6.964;2023-07-09T13:39:29;5.70;;;5.13;;
15307;SDS011;7755;52.208;6.964;2023-07-09T13:43:33;5.28;;;4.78;;
15307;SDS011;7755;52.208;6.964;2023-07-09T13:47:38;5.38;;;4.80;;
15307;SDS011;7755;52.208;6.964;2023-07-09T13:51:41;5.95;;;5.45;;
15307;SDS011;7755;52.208;6.964;2023-07-09T13:55:46;7.45;;;5.10;;
15307;SDS011;7755;52.208;6.964;2023-07-09T13:59:51;5.38;;;4.88;;
15307;SDS011;7755;52.208;6.964;2023-07-09T14:03:54;6.07;;;4.88;;
15307;SDS011;7755;52.208;6.964;2023-07-09T14:08:01;6.35;;;5.75;;
15307;SDS011;7755;52.208;6.964;2023-07-09T14:12:07;5.55;;;5.05;;
15307;SDS011;7755;52.208;6.964;2023-07-09T14:16:13;6.40;;;5.20;;
15307;SDS011;7755;52.208;6.964;2023-07-09T14:20:23;6.47;;;5.82;;
15307;SDS011;7755;52.208;6.964;2023-07-09T14:24:27;5.57;;;5.10;;
15307;SDS011;7755;52.208;6.964;2023-07-09T14:28:32;6.68;;;5.60;;
15307;SDS011;7755;52.208;6.964;2023-07-09T14:32:38;6.97;;;5.97;;
15307;SDS011;7755;52.208;6.964;2023-07-09T14:36:43;7.70;;;6.18;;
15307;SDS011;7755;52.208;6.964;2023-07-09T14:40:46;7.22;;;6.38;;
15307;SDS011;7755;52.208;6.964;2023-07-09T14:44:51;6.15;;;5.63;;
15307;SDS011;7755;52.208;6.964;2023-07-09T14:48:54;7.43;;;5.97;;
15307;SDS011;7755;52.208;6.964;2023-07-09T14:52:57;5.80;;;5.22;;
15307;SDS011;7755;52.208;6.964;2023-07-09T14:57:00;6.93;;;6.22;;
15307;SDS011;7755;52.208;6.964;2023-07-09T15:01:11;7.30;;;6.70;;
15307;SDS011;7755;52.208;6.964;2023-07-09T15:05:16;6.68;;;5.90;;
15307;SDS011;7755;52.208;6.964;2023-07-09T15:09:21;5.97;;;5.38;;
15307;SDS011;7755;52.208;6.964;2023-07-09T15:13:27;6.38;;;5.88;;
15307;SDS011;7755;52.208;6.964;2023-07-09T15:17:34;6.68;;;6.07;;
15307;SDS011;7755;52.208;6.964;2023-07-09T15:21:37;7.68;;;5.75;;
15307;SDS011;7755;52.208;6.964;2023-07-09T15:25:40;6.60;;;6.00;;
15307;SDS011;7755;52.208;6.964;2023-07-09T15:29:43;6.55;;;5.95;;
15307;SDS011;7755;52.208;6.964;2023-07-09T15:33:47;7.03;;;6.07;;
15307;SDS011;7755;52.208;6.964;2023-07-09T15:37:50;5.97;;;5.47;;
15307;SDS011;7755;52.208;6.964;2023-07-09T15:41:53;7.22;;;6.35;;
15307;SDS011;7755;52.208;6.964;2023-07-09T15:45:56;8.82;;;7.15;;
15307;SDS011;7755;52.208;6.964;2023-07-09T15:50:04;7.80;;;7.00;;
15307;SDS011;7755;52.208;6.964;2023-07-09T15:54:14;19.40;;;5.60;;
15307;SDS011;7755;52.208;6.964;2023-07-09T15:58:19;15.27;;;3.75;;
15307;SDS011;7755;52.208;6.964;2023-07-09T16:02:26;8.63;;;3.38;;
15307;SDS011;7755;52.208;6.964;2023-07-09T16:06:32;5.20;;;3.15;;
15307;SDS011;7755;52.208;6.964;2023-07-09T16:10:40;9.02;;;3.42;;
15307;SDS011;7755;52.208;6.964;2023-07-09T16:14:43;4.93;;;2.60;;
15307;SDS011;7755;52.208;6.964;2023-07-09T16:18:46;6.57;;;3.77;;
15307;SDS011;7755;52.208;6.964;2023-07-09T16:22:50;3.67;;;2.20;;
15307;SDS011;7755;52.208;6.964;2023-07-09T16:26:57;2.40;;;2.20;;
15307;SDS011;7755;52.208;6.964;2023-07-09T16:31:01;4.23;;;2.80;;
15307;SDS011;7755;52.208;6.964;2023-07-09T16:35:04;2.70;;;2.50;;
15307;SDS011;7755;52.208;6.964;2023-07-09T16:39:20;3.27;;;2.70;;
15307;SDS011;7755;52.208;6.964;2023-07-09T16:43:27;3.30;;;3.00;;
15307;SDS011;7755;52.208;6.964;2023-07-09T16:47:30;4.40;;;3.50;;
15307;SDS011;7755;52.208;6.964;2023-07-09T16:51:33;4.33;;;3.87;;
15307;SDS011;7755;52.208;6.964;2023-07-09T16:55:37;3.80;;;3.57;;
15307;SDS011;7755;52.208;6.964;2023-07-09T16:59:40;3.63;;;3.23;;
15307;SDS011;7755;52.208;6.964;2023-07-09T17:03:44;3.57;;;3.27;;
15307;SDS011;7755;52.208;6.964;2023-07-09T17:07:47;4.57;;;4.00;;
15307;SDS011;7755;52.208;6.964;2023-07-09T17:11:54;3.87;;;3.50;;
15307;SDS011;7755;52.208;6.964;2023-07-09T17:15:59;4.37;;;3.97;;
15307;SDS011;7755;52.208;6.964;2023-07-09T17:20:03;4.03;;;3.63;;
15307;SDS011;7755;52.208;6.964;2023-07-09T17:24:10;5.50;;;4.80;;
15307;SDS011;7755;52.208;6.964;2023-07-09T17:28:24;5.80;;;4.13;;
15307;SDS011;7755;52.208;6.964;2023-07-09T17:32:29;4.93;;;4.27;;
15307;SDS011;7755;52.208;6.964;2023-07-09T17:36:32;4.03;;;3.73;;
15307;SDS011;7755;52.208;6.964;2023-07-09T17:40:36;4.30;;;3.87;;
15307;SDS011;7755;52.208;6.964;2023-07-09T17:44:45;4.70;;;4.30;;
15307;SDS011;7755;52.208;6.964;2023-07-09T17:48:48;5.67;;;5.27;;
15307;SDS011;7755;52.208;6.964;2023-07-09T17:52:51;7.23;;;5.80;;
15307;SDS011;7755;52.208;6.964;2023-07-09T17:56:56;6.67;;;6.07;;
15307;SDS011;7755;52.208;6.964;2023-07-09T18:01:02;7.07;;;6.43;;
15307;SDS011;7755;52.208;6.964;2023-07-09T18:05:18;6.67;;;5.90;;
15307;SDS011;7755;52.208;6.964;2023-07-09T18:09:24;6.50;;;5.93;;
15307;SDS011;7755;52.208;6.964;2023-07-09T18:13:28;6.83;;;6.07;;
15307;SDS011;7755;52.208;6.964;2023-07-09T18:17:34;6.90;;;6.20;;
15307;SDS011;7755;52.208;6.964;2023-07-09T18:21:37;7.07;;;6.37;;
15307;SDS011;7755;52.208;6.964;2023-07-09T18:25:41;6.87;;;6.27;;
15307;SDS011;7755;52.208;6.964;2023-07-09T18:29:46;7.73;;;7.03;;
15307;SDS011;7755;52.208;6.964;2023-07-09T18:33:52;8.57;;;7.83;;
15307;SDS011;7755;52.208;6.964;2023-07-09T18:37:56;8.53;;;7.63;;
15307;SDS011;7755;52.208;6.964;2023-07-09T18:42:00;8.93;;;8.13;;
15307;SDS011;7755;52.208;6.964;2023-07-09T18:46:07;8.37;;;7.63;;
15307;SDS011;7755;52.208;6.964;2023-07-09T18:50:14;6.87;;;6.37;;
15307;SDS011;7755;52.208;6.964;2023-07-09T18:54:19;9.07;;;8.17;;
15307;SDS011;7755;52.208;6.964;2023-07-09T18:58:25;8.00;;;7.40;;
15307;SDS011;7755;52.208;6.964;2023-07-09T19:02:29;8.80;;;7.93;;
15307;SDS011;7755;52.208;6.964;2023-07-09T19:06:33;8.33;;;7.53;;
15307;SDS011;7755;52.208;6.964;2023-07-09T19:10:36;7.53;;;6.93;;
15307;SDS011;7755;52.208;6.964;2023-07-09T19:14:40;6.97;;;6.40;;
15307;SDS011;7755;52.208;6.964;2023-07-09T19:18:43;8.40;;;7.60;;
15307;SDS011;7755;52.208;6.964;2023-07-09T19:22:48;7.87;;;7.20;;
15307;SDS011;7755;52.208;6.964;2023-07-09T19:26:52;10.50;;;9.47;;
15307;SDS011;7755;52.208;6.964;2023-07-09T19:30:56;9.37;;;8.57;;
15307;SDS011;7755;52.208;6.964;2023-07-09T19:35:00;10.87;;;9.93;;
15307;SDS011;7755;52.208;6.964;2023-07-09T19:39:08;10.50;;;9.20;;
15307;SDS011;7755;52.208;6.964;2023-07-09T19:43:27;11.37;;;9.77;;
15307;SDS011;7755;52.208;6.964;2023-07-09T19:47:31;10.23;;;9.23;;
15307;SDS011;7755;52.208;6.964;2023-07-09T19:51:37;12.67;;;11.63;;
15307;SDS011;7755;52.208;6.964;2023-07-09T19:55:41;12.27;;;10.60;;
15307;SDS011;7755;52.208;6.964;2023-07-09T19:59:44;12.70;;;11.40;;
15307;SDS011;7755;52.208;6.964;2023-07-09T20:03:47;15.37;;;13.77;;
15307;SDS011;7755;52.208;6.964;2023-07-09T20:07:50;15.40;;;13.90;;
15307;SDS011;7755;52.208;6.964;2023-07-09T20:11:57;15.13;;;13.53;;
15307;SDS011;7755;52.208;6.964;2023-07-09T20:16:01;12.23;;;11.13;;
15307;SDS011;7755;52.208;6.964;2023-07-09T20:20:07;19.50;;;17.63;;
15307;SDS011;7755;52.208;6.964;2023-07-09T20:24:16;17.67;;;15.97;;
15307;SDS011;7755;52.208;6.964;2023-07-09T20:28:22;16.97;;;15.27;;
15307;SDS011;7755;52.208;6.964;2023-07-09T20:32:27;16.53;;;14.97;;
15307;SDS011;7755;52.208;6.964;2023-07-09T20:36:30;16.53;;;15.13;;
15307;SDS011;7755;52.208;6.964;2023-07-09T20:40:33;19.03;;;17.03;;
15307;SDS011;7755;52.208;6.964;2023-07-09T20:44:38;14.77;;;13.47;;
15307;SDS011;7755;52.208;6.964;2023-07-09T20:48:43;18.20;;;16.37;;
15307;SDS011;7755;52.208;6.964;2023-07-09T20:52:47;16.80;;;15.37;;
15307;SDS011;7755;52.208;6.964;2023-07-09T20:56:50;17.17;;;15.57;;
15307;SDS011;7755;52.208;6.964;2023-07-09T21:00:58;18.50;;;16.80;;
15307;SDS011;7755;52.208;6.964;2023-07-09T21:05:01;16.60;;;15.10;;
15307;SDS011;7755;52.208;6.964;2023-07-09T21:09:09;16.00;;;14.40;;
15307;SDS011;7755;52.208;6.964;2023-07-09T21:13:18;20.23;;;18.33;;
15307;SDS011;7755;52.208;6.964;2023-07-09T21:17:23;19.00;;;17.20;;
15307;SDS011;7755;52.208;6.964;2023-07-09T21:21:28;17.70;;;15.93;;
15307;SDS011;7755;52.208;6.964;2023-07-09T21:25:31;17.33;;;15.33;;
15307;SDS011;7755;52.208;6.964;2023-07-09T21:29:34;17.90;;;16.20;;
15307;SDS011;7755;52.208;6.964;2023-07-09T21:33:39;18.80;;;16.90;;
15307;SDS011;7755;52.208;6.964;2023-07-09T21:37:41;20.97;;;18.90;;
15307;SDS011;7755;52.208;6.964;2023-07-09T21:41:45;18.30;;;16.53;;
15307;SDS011;7755;52.208;6.964;2023-07-09T21:45:50;20.10;;;18.17;;
15307;SDS011;7755;52.208;6.964;2023-07-09T21:49:56;19.27;;;17.40;;
15307;SDS011;7755;52.208;6.964;2023-07-09T21:53:58;17.00;;;15.50;;
15307;SDS011;7755;52.208;6.964;2023-07-09T21:58:04;17.97;;;16.20;;
15307;SDS011;7755;52.208;6.964;2023-07-09T22:02:10;17.13;;;15.40;;
15307;SDS011;7755;52.208;6.964;2023-07-09T22:06:20;18.50;;;16.77;;
15307;SDS011;7755;52.208;6.964;2023-07-09T22:10:24;18.33;;;16.43;;
15307;SDS011;7755;52.208;6.964;2023-07-09T22:14:33;18.43;;;16.57;;
15307;SDS011;7755;52.208;6.964;2023-07-09T22:18:35;14.20;;;12.90;;
15307;SDS011;7755;52.208;6.964;2023-07-09T22:22:40;16.47;;;15.03;;
15307;SDS011;7755;52.208;6.964;2023-07-09T22:26:43;14.53;;;13.17;;
15307;SDS011;7755;52.208;6.964;2023-07-09T22:30:46;13.70;;;12.40;;
15307;SDS011;7755;52.208;6.964;2023-07-09T22:34:56;15.60;;;14.13;;
15307;SDS011;7755;52.208;6.964;2023-07-09T22:39:08;15.43;;;13.93;;
15307;SDS011;7755;52.208;6.964;2023-07-09T22:43:13;14.97;;;13.77;;
15307;SDS011;7755;52.208;6.964;2023-07-09T22:47:17;16.80;;;15.27;;
15307;SDS011;7755;52.208;6.964;2023-07-09T22:51:22;15.23;;;13.83;;
15307;SDS011;7755;52.208;6.964;2023-07-09T22:55:28;18.30;;;16.40;;
15307;SDS011;7755;52.208;6.964;2023-07-09T22:59:33;19.47;;;17.67;;
15307;SDS011;7755;52.208;6.964;2023-07-09T23:03:36;17.87;;;16.13;;
15307;SDS011;7755;52.208;6.964;2023-07-09T23:07:42;16.73;;;15.27;;
15307;SDS011;7755;52.208;6.964;2023-07-09T23:11:47;16.77;;;15.17;;
15307;SDS011;7755;52.208;6.964;2023-07-09T23:15:50;17.97;;;16.30;;
15307;SDS011;7755;52.208;6.964;2023-07-09T23:19:53;19.73;;;17.83;;
15307;SDS011;7755;52.208;6.964;2023-07-09T23:23:56;19.27;;;17.57;;
15307;SDS011;7755;52.208;6.964;2023-07-09T23:28:02;16.43;;;14.90;;
15307;SDS011;7755;52.208;6.964;2023-07-09T23:32:08;20.43;;;18.50;;
15307;SDS011;7755;52.208;6.964;2023-07-09T23:36:16;17.77;;;16.17;;
15307;SDS011;7755;52.208;6.964;2023-07-09T23:40:19;17.87;;;16.20;;
15307;SDS011;7755;52.208;6.964;2023-07-09T23:44:26;20.27;;;18.40;;
15307;SDS011;7755;52.208;6.964;2023-07-09T23:48:34;18.93;;;16.90;;
15307;SDS011;7755;52.208;6.964;2023-07-09T23:52:37;20.13;;;18.17;;
15307;SDS011;7755;52.208;6.964;2023-07-09T23:56:39;19.40;;;17.40;;
